Ust' Kalmanka, Russia
Current Conditions -  °F | °C
As of 3:00 AM on Wednesday 22 Oct 2014 (Local Time) from UNBB Reporting Station
Light Snow Light Snow  
Wind Chill: -9°   Ceiling: 2000
Heat Index: -3°   Visibility: 6mi
Dew Point: -6°   Wind: 13mph
Humidity: 80%   Direction: 210°SSW
Pressure: 30.21"   Gusts: NA
Location:  52.12°N, 83.32°E
Report Text: UNBB 212000Z 21006MPS 9999 -SN BKN020 M03/M06 Q1023 NOSIG RMKQFE745/0993 24CLRD66
Loading
Personal Weather Stations






























Interactive Weather Map
Tropical Storm Tracking
New forecast layout! Learn more

10-Day Weather Forecast

Advertisements
Track Severe Weather on mobile